Flight Number: EUR2349 Duration: 1:30
Departure: Munich Int'l (EDDM) at 08:30 Distance: 511 Nm
Arrival: Kaliningrad (UMKK) at 10:00 Equipment: B737

Weather Information
Munchen, Germany (EDDM) 48-21N 011-47E Sep 21, 2017 - 05:20 PM EDT / 2017.09.21 2120 UTC
Wind: from the NNE (030 degrees) at 2 MPH (2 KT):0
Visibility: greater than 7 mile(s):0 Weather: shallow fog Temperature: 42 F (6 C) Dew Point: 41 F (5 C) Relative Humidity: 93% Pressure (altimeter): 30.15 in. Hg (1021 hPa)
ob: EDDM 212120Z 03002KT 9999 MIFG NSC 06/05 Q1021 NOSIG cycle: 21
Sunrise: 05:02 Sunset: 17:08 (UTC)

Kaliningrad/Khrabrovo Airport, Russia (UMKK) 54-43-12N 020-30E Sep 21, 2017 - 05:00 PM EDT / 2017.09.21 2100 UTC
Wind: from the NNE (020 degrees) at 9 MPH (8 KT):0
Visibility: greater than 7 mile(s):0
Sky conditions: mostly cloudy Temperature: 55 F (13 C) Dew Point: 55 F (13 C) Relative Humidity: 100% Pressure (altimeter): 29.97 in. Hg (1015 hPa)
ob: UMKK 212100Z 02004MPS 9999 SCT007 BKN018 13/13 Q1015 R06/29//55 NOSIG RMK QFE760/1013 cycle: 21
Sunrise: 04:26 Sunset: 16:34 (UTC)

TAF:2017/09/21 21:27 TAF TAF UMKK 212000Z 2121/2221 02003G08MPS 5000 BR BKN011 BKN020 TEMPO 2121/2206 3100 -SHRA BR BKN007 BKN015CB BECMG 2206/2208 VRB01MPS BKN011 TEMPO 2206/2215 3100 -SHRA BR BKN005 BKN015CB BECMG 2215/2217 3100 BR BKN003 TEMPO 2215/2221 0300 DZ FG VV002

Previous Pireps for this route
Date Aircraft Flight time Fuel used Landing rate On time
2014-11-24B73701.328140-195Yes
2014-12-13B73701.338408-201Yes
(pireps marked green are flown by you)

Route map